Time;durP1;ratioP1;P1;durP2;ratioP2;P2;SDS_P1;SDS_P2;PMS_P1;PMS_P2;Temp;Humidity;BMP_temperature;BMP_pressure;BME280_temperature;BME280_humidity;BME280_pressure;Samples;Min_cycle;Max_cycle;Signal;HPM_P1;HPM_P2
2023/10/12 00:00:27;;;;;;;11.63;5.37;;;;;;;20.00;57.00;151059.78;4914560;29;20250;-57
2023/10/12 00:02:57;;;;;;;14.77;4.50;;;;;;;20.14;56.03;151093.59;4915349;29;20248;-56
2023/10/12 00:05:27;;;;;;;11.33;4.90;;;;;;;20.06;56.47;151076.03;4915021;29;20233;-57
2023/10/12 00:07:56;;;;;;;8.00;4.57;;;;;;;19.97;57.75;151053.50;4915584;29;29821;-58
2023/10/12 00:10:24;;;;;;;10.70;4.57;;;;;;;20.01;56.25;151062.28;4919315;29;20792;-57
2023/10/12 00:12:54;;;;;;;10.03;4.80;;;;;;;20.01;56.60;151062.28;4918659;29;20245;-58
2023/10/12 00:15:25;;;;;;;7.53;4.30;;;;;;;19.85;56.62;151024.66;4919067;29;20289;-58
2023/10/12 00:17:55;;;;;;;12.33;4.27;;;;;;;20.10;55.59;151084.84;4916172;29;20752;-58
2023/10/12 00:20:25;;;;;;;9.07;4.60;;;;;;;20.05;55.89;151072.31;4919297;29;20245;-55
2023/10/12 00:22:52;;;;;;;9.13;5.00;;;;;;;20.17;54.94;151101.09;4914736;29;20374;-57
2023/10/12 00:25:20;;;;;;;9.23;4.27;;;;;;;20.14;55.41;151093.59;4916447;29;20326;-56
2023/10/12 00:27:48;;;;;;;8.30;5.03;;;;;;;20.00;55.58;151061.00;4917262;29;20247;-55
2023/10/12 00:30:16;;;;;;;14.40;4.73;;;;;;;20.04;55.32;151069.81;4923809;29;20237;-55
2023/10/12 00:32:42;;;;;;;18.13;4.63;;;;;;;20.13;54.98;151092.34;4922446;29;20262;-55
2023/10/12 00:35:10;;;;;;;15.67;4.70;;;;;;;20.17;54.38;151101.09;4936696;29;20699;-53
2023/10/12 00:37:43;;;;;;;10.57;4.97;;;;;;;20.40;53.99;151156.22;4918763;29;20230;-55
2023/10/12 00:40:31;;;;;;;10.27;4.63;;;;;;;20.27;53.84;151124.88;4935598;29;20238;-54
2023/10/12 00:43:00;;;;;;;10.40;4.47;;;;;;;20.15;54.41;151097.31;4918503;29;20247;-54
2023/10/12 00:45:29;;;;;;;11.33;5.03;;;;;;;20.26;53.92;151122.38;4923520;29;20316;-54
2023/10/12 00:48:01;;;;;;;9.60;4.63;;;;;;;20.34;54.06;151143.69;4917352;29;20322;-53
2023/10/12 00:50:30;;;;;;;11.13;4.63;;;;;;;20.45;53.10;151170.00;4918288;29;20238;-54
2023/10/12 00:53:14;;;;;;;10.17;5.20;;;;;;;20.45;52.91;151168.75;4922808;29;20304;-56
2023/10/12 00:55:42;;;;;;;13.03;5.07;;;;;;;20.33;53.70;151139.91;4919393;29;20658;-53
2023/10/12 00:58:10;;;;;;;11.60;4.43;;;;;;;20.19;53.78;151107.34;4926384;29;20235;-55
2023/10/12 01:00:44;;;;;;;14.93;4.30;;;;;;;20.14;53.89;151094.81;4909899;29;20237;-55
2023/10/12 01:06:07;;;;;;;10.13;4.33;;;;;;;20.19;53.72;151107.34;4918876;29;20377;-56
2023/10/12 01:08:34;;;;;;;8.10;4.67;;;;;;;20.23;53.84;151116.13;4918695;29;20296;-56
2023/10/12 01:11:04;;;;;;;10.67;4.77;;;;;;;20.20;53.90;151109.84;4915007;29;20708;-56
2023/10/12 01:13:33;;;;;;;12.93;4.07;;;;;;;20.20;53.84;151109.84;4916714;29;20406;-55
2023/10/12 01:16:02;;;;;;;10.37;4.47;;;;;;;20.21;53.63;151112.34;4926803;29;20232;-54
2023/10/12 01:18:29;;;;;;;12.60;4.33;;;;;;;20.29;53.43;151131.16;4915886;29;20737;-56
2023/10/12 01:20:56;;;;;;;10.03;4.83;;;;;;;20.40;53.13;151157.47;4917423;29;20250;-55
2023/10/12 01:23:24;;;;;;;12.63;4.07;;;;;;;20.57;52.51;151198.84;4914738;29;20233;-57
2023/10/12 01:25:51;;;;;;;12.53;4.53;;;;;;;20.50;52.45;151182.53;4922844;29;20238;-56
2023/10/12 01:28:20;;;;;;;10.77;4.73;;;;;;;20.54;52.47;151190.03;4926781;29;20248;-56
2023/10/12 01:30:47;;;;;;;9.23;4.57;;;;;;;20.47;53.09;151173.78;4925630;29;20238;-56
2023/10/12 01:33:14;;;;;;;11.20;4.17;;;;;;;20.54;52.45;151190.03;4923121;29;20621;-56
2023/10/12 01:35:48;;;;;;;10.80;4.90;;;;;;;20.50;52.59;151182.53;4912609;29;20315;-55
2023/10/12 01:38:15;;;;;;;13.63;4.50;;;;;;;20.35;53.10;151144.94;4920861;29;20255;-56
2023/10/12 01:40:45;;;;;;;10.83;4.50;;;;;;;20.42;52.92;151161.25;4915163;29;20312;-56
2023/10/12 01:43:14;;;;;;;13.73;4.77;;;;;;;20.48;52.36;151176.28;4923018;29;20346;-56
2023/10/12 01:45:44;;;;;;;10.60;4.63;;;;;;;20.21;54.30;151112.34;4920026;29;20235;-56
2023/10/12 01:48:15;;;;;;;12.07;4.83;;;;;;;20.18;53.66;151104.84;4923994;29;20285;-54
2023/10/12 01:50:42;;;;;;;9.03;4.03;;;;;;;20.24;53.36;151117.38;4919428;29;20234;-56
2023/10/12 01:53:23;;;;;;;13.63;5.03;;;;;;;20.19;53.30;151106.09;4925131;29;20595;-53
2023/10/12 01:55:52;;;;;;;12.17;4.53;;;;;;;20.01;53.86;151062.28;4915359;29;20233;-56
2023/10/12 01:58:19;;;;;;;11.63;4.03;;;;;;;19.99;54.07;151057.28;4919666;29;20247;-55
2023/10/12 02:00:51;;;;;;;11.87;4.63;;;;;;;19.93;54.26;151042.25;4916528;29;20730;-56
2023/10/12 02:03:21;;;;;;;11.43;4.67;;;;;;;20.03;53.98;151067.28;4916641;29;20251;-55
2023/10/12 02:05:56;;;;;;;11.50;4.37;;;;;;;20.21;53.35;151112.34;4917875;29;20234;-55
2023/10/12 02:08:26;;;;;;;9.80;4.20;;;;;;;20.18;52.98;151103.59;4934698;29;20775;-57
2023/10/12 02:10:58;;;;;;;12.57;4.43;;;;;;;20.33;52.73;151141.19;4922076;29;20217;-56
2023/10/12 02:13:25;;;;;;;12.87;5.00;;;;;;;20.24;53.36;151117.38;4925206;29;20241;-56
2023/10/12 02:15:52;;;;;;;10.20;4.60;;;;;;;20.13;53.73;151092.34;4915940;29;20236;-57
2023/10/12 02:18:19;;;;;;;9.27;4.50;;;;;;;20.09;53.65;151082.34;4920739;29;20235;-57
2023/10/12 02:21:06;;;;;;;13.53;4.57;;;;;;;20.02;53.68;151064.78;4919995;29;20228;-56
2023/10/12 02:23:36;;;;;;;14.17;4.57;;;;;;;19.99;54.13;151057.28;4919431;29;20230;-54
2023/10/12 02:26:07;;;;;;;10.43;4.70;;;;;;;19.86;54.51;151027.16;4917545;29;20242;-54
2023/10/12 02:28:37;;;;;;;10.90;4.63;;;;;;;20.01;54.07;151063.50;4923657;29;20248;-57
2023/10/12 02:31:05;;;;;;;10.70;4.30;;;;;;;20.05;54.17;151073.53;4916591;29;20662;-55
2023/10/12 02:33:37;;;;;;;13.80;4.90;;;;;;;19.91;54.32;151038.47;4920829;29;20525;-56
2023/10/12 02:36:08;;;;;;;11.07;4.60;;;;;;;19.88;55.16;151032.16;4907035;29;20317;-54
2023/10/12 02:38:35;;;;;;;11.23;4.67;;;;;;;19.79;55.12;151008.34;4919648;29;20231;-57
2023/10/12 02:41:03;;;;;;;12.63;5.13;;;;;;;19.80;54.47;151012.13;4924645;29;20241;-56
2023/10/12 02:43:33;;;;;;;7.80;4.83;;;;;;;20.06;53.79;151076.03;4923927;29;20588;-55
2023/10/12 02:46:06;;;;;;;12.33;4.70;;;;;;;19.98;54.48;151054.78;4934327;29;20595;-55
2023/10/12 02:48:36;;;;;;;17.43;4.80;;;;;;;19.99;54.39;151058.50;4919660;29;20477;-54
2023/10/12 02:51:06;;;;;;;10.63;4.57;;;;;;;20.03;53.68;151067.28;4914952;29;20246;-55
2023/10/12 02:53:34;;;;;;;8.47;4.53;;;;;;;20.01;54.33;151062.28;4919874;29;20784;-55
2023/10/12 02:56:01;;;;;;;12.77;4.50;;;;;;;20.08;54.21;151079.81;4916630;29;20243;-55
2023/10/12 02:58:28;;;;;;;13.77;4.50;;;;;;;20.18;53.97;151104.84;4916743;29;20292;-54
2023/10/12 03:01:12;;;;;;;10.00;4.70;;;;;;;20.36;53.57;151147.44;4922299;29;20251;-55
2023/10/12 03:03:40;;;;;;;10.10;4.53;;;;;;;20.41;53.30;151158.72;4933720;29;20238;-54
2023/10/12 03:06:08;;;;;;;14.20;4.97;;;;;;;20.35;53.81;151146.19;4919898;29;20234;-54
2023/10/12 03:08:47;;;;;;;10.60;4.80;;;;;;;20.17;54.75;151102.31;4922929;29;20832;-56
2023/10/12 03:11:19;;;;;;;8.17;4.60;;;;;;;20.16;54.62;151098.59;4921198;29;20328;-55
2023/10/12 03:13:57;;;;;;;7.13;4.30;;;;;;;20.17;54.93;151102.31;4914720;29;20239;-56
2023/10/12 03:16:26;;;;;;;10.23;4.77;;;;;;;20.06;55.18;151076.03;4924415;29;20238;-56
2023/10/12 03:18:57;;;;;;;9.47;4.17;;;;;;;19.99;55.95;151058.50;4918537;29;20241;-56
2023/10/12 03:21:27;;;;;;;11.77;4.57;;;;;;;19.86;57.05;151027.16;4917814;29;20244;-56
2023/10/12 03:23:56;;;;;;;14.47;4.50;;;;;;;20.11;55.40;151087.34;4913955;29;20254;-56
2023/10/12 03:26:25;;;;;;;16.97;4.77;;;;;;;20.19;55.36;151106.09;4920684;29;20233;-56
2023/10/12 03:28:53;;;;;;;13.93;4.57;;;;;;;20.19;55.39;151106.09;4914742;29;20654;-59
2023/10/12 03:31:23;;;;;;;13.77;4.93;;;;;;;20.04;56.17;151069.81;5171596;23;20245;-53
2023/10/12 03:33:55;;;;;;;11.90;4.47;;;;;;;20.04;56.23;151071.03;4916192;29;20250;-54
2023/10/12 03:36:26;;;;;;;12.40;4.77;;;;;;;20.19;55.83;151106.09;4933279;29;20694;-50
2023/10/12 03:39:07;;;;;;;7.67;4.30;;;;;;;20.26;55.77;151123.66;4915457;29;20231;-53
2023/10/12 03:41:54;;;;;;;13.03;4.23;;;;;;;20.25;55.07;151119.88;4907139;29;20383;-51
2023/10/12 03:44:22;;;;;;;16.57;5.10;;;;;;;20.24;55.26;151118.63;4916256;29;20361;-52
2023/10/12 03:47:00;;;;;;;9.10;5.23;;;;;;;20.18;55.75;151103.59;4916343;29;20241;-53
2023/10/12 03:49:35;;;;;;;17.97;4.87;;;;;;;20.29;54.99;151129.88;4919546;29;20532;-51
2023/10/12 03:52:13;;;;;;;9.93;4.93;;;;;;;20.09;56.11;151082.34;4917452;29;20405;-51
2023/10/12 03:54:55;;;;;;;13.63;4.57;;;;;;;20.08;56.76;151078.56;4916672;29;20714;-52
2023/10/12 03:57:28;;;;;;;11.63;5.10;;;;;;;19.90;57.13;151037.22;4919906;29;20232;-51
2023/10/12 04:00:23;;;;;;;16.67;5.27;;;;;;;20.07;55.85;151077.31;4916714;29;21880;-52
2023/10/12 04:02:54;;;;;;;10.60;4.53;;;;;;;20.10;55.83;151083.56;4920628;29;20248;-53
2023/10/12 04:05:35;;;;;;;10.53;4.63;;;;;;;20.09;55.85;151082.34;4920681;29;20245;-51
2023/10/12 04:08:18;;;;;;;10.40;4.60;;;;;;;19.99;57.17;151058.50;4918427;29;20278;-51
2023/10/12 04:16:27;;;;;;;12.37;4.20;;;;;;;19.56;58.00;150954.50;4919398;29;20228;-53
2023/10/12 04:19:03;;;;;;;13.20;4.77;;;;;;;19.69;57.99;150984.56;4920029;29;20246;-53
2023/10/12 04:21:36;;;;;;;9.03;4.87;;;;;;;19.58;57.94;150959.53;4922772;29;20249;-54
2023/10/12 04:27:09;;;;;;;12.83;4.90;;;;;;;19.61;58.21;150965.75;4917767;29;20837;-53
2023/10/12 04:29:38;;;;;;;13.73;4.80;;;;;;;19.67;58.97;150979.56;4919150;29;20238;-53
2023/10/12 04:32:15;;;;;;;10.13;4.50;;;;;;;19.67;58.54;150979.56;4922431;29;20398;-53
2023/10/12 04:34:49;;;;;;;9.10;4.70;;;;;;;19.84;57.47;151022.16;4918109;29;20380;-51
2023/10/12 04:37:25;;;;;;;12.80;4.77;;;;;;;19.74;57.87;150997.09;4920018;29;20240;-50
2023/10/12 04:39:56;;;;;;;12.47;5.60;;;;;;;19.68;58.30;150983.28;4914729;29;20244;-52
2023/10/12 04:42:24;;;;;;;15.77;5.17;;;;;;;19.65;58.04;150975.78;4921463;29;20246;-50
2023/10/12 04:45:03;;;;;;;12.50;5.33;;;;;;;19.72;57.86;150992.09;4918815;29;20238;-50
2023/10/12 04:47:30;;;;;;;10.53;4.60;;;;;;;19.58;58.26;150959.53;4923684;29;20230;-51
2023/10/12 04:49:57;;;;;;;11.80;4.60;;;;;;;19.91;56.95;151039.75;4915460;29;20236;-52
2023/10/12 04:52:36;;;;;;;11.73;5.00;;;;;;;19.89;57.32;151033.44;4922262;29;20669;-51
2023/10/12 04:55:20;;;;;;;11.30;5.00;;;;;;;19.96;56.55;151051.00;4918391;29;20241;-51
2023/10/12 04:58:09;;;;;;;12.37;4.53;;;;;;;19.97;56.72;151053.50;4918626;29;20355;-50
2023/10/12 05:00:48;;;;;;;11.50;4.87;;;;;;;19.93;56.95;151043.47;4918980;29;20241;-52
2023/10/12 05:03:25;;;;;;;16.97;5.20;;;;;;;19.86;57.98;151025.88;4922916;29;20241;-52
2023/10/12 05:05:57;;;;;;;13.27;4.80;;;;;;;19.83;57.28;151019.66;4919800;29;20234;-52
2023/10/12 05:08:27;;;;;;;9.23;4.87;;;;;;;19.56;59.17;150954.50;4918687;29;20311;-53
2023/10/12 05:10:53;;;;;;;10.23;4.80;;;;;;;19.44;59.34;150924.47;4917574;29;20263;-53
2023/10/12 05:13:23;;;;;;;12.57;5.00;;;;;;;19.62;57.89;150969.53;4933634;29;20724;-51
2023/10/12 05:15:56;;;;;;;16.50;5.20;;;;;;;19.75;57.40;151000.84;4920245;29;20238;-52
2023/10/12 05:18:24;;;;;;;10.27;4.83;;;;;;;19.82;57.43;151017.13;4922581;29;20237;-51
2023/10/12 05:20:51;;;;;;;11.27;5.20;;;;;;;19.70;57.84;150987.06;4917126;29;20281;-54
2023/10/12 05:23:19;;;;;;;8.57;4.70;;;;;;;19.59;58.73;150962.03;4917849;29;20239;-55
2023/10/12 05:25:54;;;;;;;8.87;4.93;;;;;;;19.76;57.43;151003.34;4931505;29;20767;-54
2023/10/12 05:28:27;;;;;;;15.47;5.37;;;;;;;19.53;58.71;150947.00;4921232;29;20227;-54
2023/10/12 05:30:59;;;;;;;20.80;5.97;;;;;;;19.66;57.46;150977.06;4916747;29;20223;-54
2023/10/12 05:34:00;;;;;;;8.20;5.20;;;;;;;19.82;57.25;151015.88;4920830;29;20290;-54
2023/10/12 05:36:28;;;;;;;9.00;4.80;;;;;;;19.65;57.56;150975.78;4916331;29;20233;-52
2023/10/12 05:39:11;;;;;;;9.50;4.80;;;;;;;19.68;57.17;150983.28;4915538;29;20248;-51
2023/10/12 05:41:40;;;;;;;8.00;4.83;;;;;;;19.73;57.22;150995.81;4918934;29;20298;-52
2023/10/12 05:44:13;;;;;;;8.23;4.90;;;;;;;19.86;56.65;151027.16;4920602;29;20235;-53
2023/10/12 05:46:41;;;;;;;16.67;4.80;;;;;;;19.78;57.13;151007.13;4916113;29;20238;-52
2023/10/12 05:49:12;;;;;;;10.47;4.60;;;;;;;19.69;57.31;150985.81;4920574;29;20230;-51
2023/10/12 05:51:43;;;;;;;16.53;5.30;;;;;;;19.89;56.36;151034.72;4919595;29;20943;-51
2023/10/12 05:54:15;;;;;;;12.37;4.93;;;;;;;19.73;57.25;150995.81;4919752;29;20238;-51
2023/10/12 05:56:44;;;;;;;15.03;5.40;;;;;;;19.67;57.60;150980.78;4918438;29;20234;-52
2023/10/12 05:59:12;;;;;;;10.77;4.97;;;;;;;19.58;57.81;150959.53;4919131;29;21005;-52
2023/10/12 06:01:39;;;;;;;9.07;5.03;;;;;;;19.65;57.68;150975.78;4919036;29;20233;-51
2023/10/12 06:04:07;;;;;;;13.20;5.00;;;;;;;19.70;57.35;150987.06;4919655;29;20246;-52
2023/10/12 06:06:35;;;;;;;11.53;5.00;;;;;;;19.75;57.26;150999.59;4921397;29;20221;-52
2023/10/12 06:09:04;;;;;;;15.87;5.30;;;;;;;19.87;56.93;151028.41;4915917;29;20224;-51
2023/10/12 06:11:31;;;;;;;13.97;5.47;;;;;;;19.95;56.46;151048.47;4918476;29;20241;-53
2023/10/12 06:13:59;;;;;;;15.37;4.67;;;;;;;19.97;56.35;151053.50;4920009;29;20240;-51
2023/10/12 06:16:28;;;;;;;8.93;4.97;;;;;;;20.08;55.88;151079.81;4919551;29;20677;-51
2023/10/12 06:18:54;;;;;;;13.10;5.23;;;;;;;20.07;56.01;151077.31;4917280;29;20406;-52
2023/10/12 06:21:24;;;;;;;11.30;4.87;;;;;;;20.07;56.22;151077.31;4917998;29;20238;-52
2023/10/12 06:23:51;;;;;;;9.57;4.73;;;;;;;20.05;56.31;151073.53;4914571;29;20236;-52
2023/10/12 06:26:29;;;;;;;12.07;5.33;;;;;;;20.12;55.71;151089.84;4920693;29;20245;-52
2023/10/12 06:29:00;;;;;;;11.47;4.63;;;;;;;20.20;55.69;151109.84;4916251;29;20290;-52
2023/10/12 06:31:29;;;;;;;9.17;4.80;;;;;;;20.35;54.61;151146.19;4922857;29;20260;-53
2023/10/12 06:33:57;;;;;;;14.73;5.00;;;;;;;20.43;54.89;151163.75;4917478;29;20278;-51
2023/10/12 06:36:37;;;;;;;8.53;4.87;;;;;;;20.51;54.63;151183.78;4911531;29;20353;-51
2023/10/12 06:41:59;;;;;;;14.70;5.13;;;;;;;20.37;56.17;151148.72;4922531;29;20269;-51
2023/10/12 06:44:26;;;;;;;7.37;4.90;;;;;;;20.49;55.11;151180.00;4921433;29;20240;-51
2023/10/12 06:46:54;;;;;;;9.20;4.37;;;;;;;20.67;53.94;151222.63;4916017;29;20321;-52
2023/10/12 06:49:24;;;;;;;16.37;5.10;;;;;;;20.71;54.64;151232.66;4923046;29;20798;-53
2023/10/12 06:52:00;;;;;;;11.13;4.50;;;;;;;20.80;54.25;151253.97;4918466;29;20712;-52
2023/10/12 06:54:49;;;;;;;9.80;4.60;;;;;;;20.84;54.79;151264.00;4917044;29;20233;-52
2023/10/12 06:57:36;;;;;;;17.43;5.77;;;;;;;20.92;54.56;151282.81;4917858;29;20240;-52
2023/10/12 07:00:33;;;;;;;10.73;4.77;;;;;;;20.89;55.63;151276.53;4916982;29;20234;-51
2023/10/12 07:03:00;;;;;;;9.53;4.70;;;;;;;20.88;55.30;151272.78;4915228;29;20228;-52
2023/10/12 07:05:33;;;;;;;13.00;5.17;;;;;;;20.96;53.72;151291.56;4920302;29;20235;-52
2023/10/12 07:08:02;;;;;;;15.27;5.33;;;;;;;21.04;55.06;151311.63;4917180;29;20245;-51
2023/10/12 07:10:29;;;;;;;11.27;5.00;;;;;;;21.12;54.54;151331.69;4921003;29;20240;-51
2023/10/12 07:13:00;;;;;;;10.50;4.97;;;;;;;21.14;54.90;151336.69;4918963;29;20744;-54
2023/10/12 07:15:32;;;;;;;9.80;4.87;;;;;;;21.18;54.70;151346.72;4920514;29;20228;-52
2023/10/12 07:18:06;;;;;;;13.17;5.33;;;;;;;21.26;55.12;151364.28;4918441;29;20356;-52
2023/10/12 07:20:43;;;;;;;9.40;5.37;;;;;;;21.15;55.09;151337.97;4919591;29;20236;-51
2023/10/12 07:23:16;;;;;;;13.77;5.20;;;;;;;21.34;53.56;151385.56;4915027;29;20279;-52
2023/10/12 07:25:49;;;;;;;11.43;5.30;;;;;;;21.56;52.94;151438.22;4915501;29;20259;-51
2023/10/12 07:28:26;;;;;;;13.63;4.90;;;;;;;21.78;52.02;151492.16;4919827;29;20264;-54
2023/10/12 07:33:59;;;;;;;12.70;5.57;;;;;;;21.66;53.64;151463.34;4892764;29;20245;-53
2023/10/12 07:36:44;;;;;;;11.87;5.00;;;;;;;21.80;53.99;151495.97;4921752;29;20241;-52
2023/10/12 07:39:19;;;;;;;15.40;4.97;;;;;;;21.86;52.71;151511.00;4921745;29;20248;-52
2023/10/12 07:41:56;;;;;;;10.17;5.13;;;;;;;22.08;52.36;151563.69;4916709;29;20233;-53
2023/10/12 07:44:23;;;;;;;9.90;4.80;;;;;;;22.15;51.05;151581.22;4924137;29;20244;-52
2023/10/12 07:46:56;;;;;;;10.30;5.03;;;;;;;22.17;51.05;151586.25;4922359;29;20741;-52
2023/10/12 07:49:30;;;;;;;13.33;4.60;;;;;;;22.24;51.83;151603.81;4922532;29;20301;-51
2023/10/12 07:52:06;;;;;;;10.30;4.80;;;;;;;22.46;52.68;151655.25;4922739;29;20248;-51
2023/10/12 07:54:55;;;;;;;10.13;4.93;;;;;;;22.53;52.89;151674.06;4922557;29;20328;-51
2023/10/12 07:57:24;;;;;;;14.93;5.43;;;;;;;22.72;51.34;151718.00;4919094;29;20265;-51
2023/10/12 07:59:59;;;;;;;12.17;5.23;;;;;;;22.79;49.83;151735.56;4921518;29;20391;-52
2023/10/12 08:03:05;;;;;;;11.53;5.07;;;;;;;22.74;50.11;151723.00;4925333;29;20690;-51
2023/10/12 08:05:56;;;;;;;11.93;4.93;;;;;;;22.85;49.16;151750.56;4919953;29;20773;-52
2023/10/12 08:08:37;;;;;;;8.57;4.60;;;;;;;22.80;50.36;151739.28;4920160;29;20231;-53
2023/10/12 08:13:55;;;;;;;11.10;4.87;;;;;;;23.00;48.92;151786.97;4917898;29;20234;-52
2023/10/12 08:16:26;;;;;;;10.03;5.40;;;;;;;23.09;49.26;151808.28;4921852;29;20232;-51
2023/10/12 08:19:27;;;;;;;13.87;4.80;;;;;;;23.12;48.17;151815.81;4919582;29;20329;-53
2023/10/12 08:21:58;;;;;;;12.70;5.13;;;;;;;23.19;49.93;151832.16;4921280;29;20246;-52
2023/10/12 08:24:25;;;;;;;9.70;4.87;;;;;;;23.45;47.71;151896.19;4920845;29;20249;-52
2023/10/12 08:26:58;;;;;;;10.73;5.00;;;;;;;23.86;47.44;151995.31;4919345;29;20234;-52
2023/10/12 08:32:27;;;;;;;9.83;4.87;;;;;;;24.03;46.60;152038.03;4918699;29;20235;-52
2023/10/12 08:38:11;;;;;;;8.87;4.80;;;;;;;24.17;47.16;152071.91;4920272;29;20813;-51
2023/10/12 08:40:53;;;;;;;14.07;5.13;;;;;;;24.36;46.24;152115.88;4916923;29;20245;-53
2023/10/12 08:43:34;;;;;;;11.63;4.73;;;;;;;24.36;45.68;152117.13;4921956;29;20291;-52
2023/10/12 08:46:03;;;;;;;15.57;5.20;;;;;;;24.32;46.09;152107.06;4920677;29;20656;-51
2023/10/12 08:48:34;;;;;;;12.10;5.23;;;;;;;24.28;45.57;152098.31;4919002;29;20316;-52
2023/10/12 08:51:09;;;;;;;9.27;4.93;;;;;;;24.48;44.80;152145.97;4917912;29;20239;-53
2023/10/12 08:53:39;;;;;;;16.37;5.30;;;;;;;24.25;46.06;152090.78;4919607;29;20223;-53
2023/10/12 08:56:08;;;;;;;11.67;5.13;;;;;;;23.98;45.97;152025.44;4922325;29;20598;-53
2023/10/12 08:58:42;;;;;;;12.23;5.47;;;;;;;23.88;46.36;152001.56;4920856;29;20734;-54
2023/10/12 09:01:10;;;;;;;7.83;4.90;;;;;;;24.30;45.10;152102.06;4920202;29;20240;-54
2023/10/12 09:03:44;;;;;;;14.00;4.80;;;;;;;24.09;46.52;152050.59;4917391;29;20681;-53
2023/10/12 09:06:36;;;;;;;11.80;4.43;;;;;;;24.14;44.66;152064.38;4923607;29;20313;-54
2023/10/12 09:09:05;;;;;;;8.53;4.90;;;;;;;24.17;45.30;152070.69;4920532;29;20331;-53
2023/10/12 09:11:33;;;;;;;12.63;5.23;;;;;;;23.71;46.38;151958.94;4919597;29;20293;-54
2023/10/12 09:14:00;;;;;;;10.03;4.80;;;;;;;24.00;45.91;152030.50;4918182;29;20639;-52
2023/10/12 09:16:28;;;;;;;11.47;5.50;;;;;;;24.35;44.71;152113.38;4921605;29;20230;-53
2023/10/12 09:18:59;;;;;;;8.23;4.77;;;;;;;24.27;46.55;152095.81;4917710;29;20226;-53
2023/10/12 09:21:38;;;;;;;8.90;4.70;;;;;;;24.42;46.38;152132.19;4922657;29;20289;-51
2023/10/12 09:24:06;;;;;;;9.67;4.57;;;;;;;24.14;45.88;152064.38;4915948;29;20239;-51
2023/10/12 09:26:34;;;;;;;10.83;5.00;;;;;;;24.52;45.54;152156.03;4923572;29;20235;-53
2023/10/12 09:35:02;;;;;;;13.43;5.40;;;;;;;24.65;44.40;152186.16;4918276;29;20245;-54
2023/10/12 09:37:33;;;;;;;9.23;4.80;;;;;;;24.30;44.93;152102.06;4918404;29;20598;-51
2023/10/12 09:40:00;;;;;;;8.77;4.50;;;;;;;23.99;46.03;152028.00;4916942;29;20317;-54
2023/10/12 09:42:31;;;;;;;14.37;5.10;;;;;;;23.97;44.89;152021.66;4921023;29;20237;-52
2023/10/12 09:45:02;;;;;;;9.77;5.23;;;;;;;23.91;45.54;152007.88;4920178;29;20299;-52
2023/10/12 09:47:43;;;;;;;9.90;4.73;;;;;;;24.29;46.10;152100.81;4922258;29;20235;-54
2023/10/12 09:50:14;;;;;;;13.10;5.03;;;;;;;24.23;46.90;152084.47;4919751;29;20238;-52
2023/10/12 09:52:47;;;;;;;11.33;5.33;;;;;;;24.08;45.41;152048.09;4919463;29;20335;-53
2023/10/12 09:55:24;;;;;;;8.60;4.53;;;;;;;23.57;46.37;151925.03;4922047;29;20234;-51
2023/10/12 09:57:53;;;;;;;12.33;4.87;;;;;;;23.55;46.70;151921.28;4915403;29;20787;-51
2023/10/12 10:00:29;;;;;;;16.27;4.53;;;;;;;24.11;47.59;152055.63;4916992;29;20238;-52
2023/10/12 10:03:02;;;;;;;12.33;4.80;;;;;;;24.32;46.25;152108.34;4915246;29;20334;-52
2023/10/12 10:05:51;;;;;;;9.77;5.07;;;;;;;24.67;43.07;152191.19;4920606;29;20583;-51
2023/10/12 10:08:26;;;;;;;10.57;5.03;;;;;;;24.52;44.61;152154.78;4918566;29;20237;-53
2023/10/12 10:10:57;;;;;;;10.43;4.67;;;;;;;24.74;45.75;152208.81;4917172;29;20318;-53
2023/10/12 10:13:46;;;;;;;13.43;4.80;;;;;;;25.10;43.43;152295.47;4921189;29;20589;-53
2023/10/12 10:16:16;;;;;;;9.03;5.37;;;;;;;25.35;41.83;152357.03;4920012;29;20229;-51
2023/10/12 10:18:56;;;;;;;5.73;4.57;;;;;;;25.33;42.26;152353.25;4918528;29;20228;-53
2023/10/12 10:21:30;;;;;;;9.80;4.77;;;;;;;25.33;42.29;152353.25;4919746;29;20351;-52
2023/10/12 10:23:59;;;;;;;10.73;5.17;;;;;;;25.47;42.77;152385.97;4920284;29;20244;-52
2023/10/12 10:26:31;;;;;;;9.73;4.80;;;;;;;25.20;43.44;152320.59;4919892;29;20508;-52
2023/10/12 10:29:04;;;;;;;11.80;5.13;;;;;;;24.64;44.47;152183.66;4914324;29;20294;-53
2023/10/12 10:31:36;;;;;;;11.73;5.10;;;;;;;25.15;43.71;152309.31;4920849;29;20239;-54
2023/10/12 10:34:05;;;;;;;10.37;5.10;;;;;;;25.45;42.68;152382.16;4917934;29;20241;-54
2023/10/12 10:36:35;;;;;;;9.67;4.60;;;;;;;25.60;41.81;152417.34;4922488;29;20240;-54
2023/10/12 10:39:09;;;;;;;10.07;4.63;;;;;;;25.33;42.47;152352.00;4917317;28;20237;-53
2023/10/12 10:41:41;;;;;;;7.87;4.40;;;;;;;25.47;42.50;152387.19;4918252;29;20272;-53
2023/10/12 10:44:13;;;;;;;9.17;4.70;;;;;;;25.19;43.32;152318.06;4920859;29;20269;-52
2023/10/12 10:46:44;;;;;;;12.43;4.70;;;;;;;24.88;43.19;152244.00;4918597;29;20236;-52
2023/10/12 10:49:15;;;;;;;10.53;4.80;;;;;;;25.10;43.84;152296.75;4919711;29;20315;-52
2023/10/12 10:51:46;;;;;;;10.10;4.80;;;;;;;25.49;43.01;152392.22;4915046;29;20604;-55
2023/10/12 10:54:18;;;;;;;11.97;4.80;;;;;;;25.33;43.12;152352.00;4919033;29;20241;-53
2023/10/12 10:56:47;;;;;;;10.27;4.60;;;;;;;25.19;42.77;152319.34;4915058;29;20268;-54
2023/10/12 10:59:18;;;;;;;11.30;4.90;;;;;;;24.73;44.41;152206.31;4921122;29;20236;-54
2023/10/12 11:01:48;;;;;;;7.37;4.47;;;;;;;24.49;44.52;152147.25;4918041;29;20305;-54
2023/10/12 11:04:36;;;;;;;11.93;4.67;;;;;;;25.19;43.25;152319.34;4922423;29;20340;-54
2023/10/12 11:07:04;;;;;;;8.63;4.90;;;;;;;24.61;43.75;152178.63;4919598;29;20228;-54
2023/10/12 11:09:54;;;;;;;7.63;4.50;;;;;;;24.93;43.05;152255.25;4919281;29;20244;-52
2023/10/12 11:12:21;;;;;;;11.30;5.07;;;;;;;24.50;45.20;152151.00;4916763;29;20312;-53
2023/10/12 11:14:52;;;;;;;11.33;5.07;;;;;;;24.68;45.39;152194.97;4915600;29;20235;-55
2023/10/12 11:17:20;;;;;;;15.00;4.53;;;;;;;24.44;45.83;152137.22;4910930;29;20230;-55
2023/10/12 11:19:46;;;;;;;7.67;4.90;;;;;;;24.80;43.77;152222.66;4916396;29;20317;-55
2023/10/12 11:22:14;;;;;;;7.47;4.87;;;;;;;25.22;44.83;152325.63;4919621;29;20984;-55
2023/10/12 11:24:48;;;;;;;13.77;5.43;;;;;;;25.09;43.90;152294.22;4916836;29;20232;-55
2023/10/12 11:27:30;;;;;;;9.23;4.80;;;;;;;25.28;42.44;152340.69;4920102;29;20700;-56
2023/10/12 11:30:00;;;;;;;13.47;5.33;;;;;;;24.98;43.55;152267.81;4917025;29;20244;-55
2023/10/12 11:32:28;;;;;;;9.63;4.93;;;;;;;25.37;43.34;152362.06;4919596;29;20299;-54
2023/10/12 11:34:59;;;;;;;11.30;4.70;;;;;;;25.57;43.56;152411.09;4917325;29;21863;-52
2023/10/12 11:37:28;;;;;;;13.70;5.23;;;;;;;25.15;43.56;152308.03;4921120;29;20240;-52
2023/10/12 11:39:57;;;;;;;10.13;4.43;;;;;;;25.40;43.12;152369.59;4916459;29;20240;-54
2023/10/12 11:42:24;;;;;;;10.67;4.70;;;;;;;25.46;44.36;152383.44;4933081;28;20244;-53
2023/10/12 11:44:52;;;;;;;10.73;5.23;;;;;;;25.74;43.17;152451.28;4914427;29;20250;-53
2023/10/12 11:47:37;;;;;;;10.23;5.33;;;;;;;25.70;41.71;152441.25;4920294;29;20233;-54
2023/10/12 11:50:09;;;;;;;10.73;5.30;;;;;;;25.50;42.07;152394.72;4916643;29;20704;-52
2023/10/12 11:52:37;;;;;;;14.03;4.97;;;;;;;25.11;43.18;152297.97;4920116;29;20231;-52
2023/10/12 11:55:07;;;;;;;11.90;5.40;;;;;;;24.80;44.31;152222.66;4918638;29;20226;-53
2023/10/12 11:57:35;;;;;;;10.20;4.90;;;;;;;24.37;45.74;152119.63;4917855;29;20233;-52
2023/10/12 12:00:07;;;;;;;7.13;4.80;;;;;;;24.36;46.88;152115.88;4918795;29;20238;-52
2023/10/12 12:02:38;;;;;;;11.13;5.03;;;;;;;24.35;46.13;152113.38;4918943;29;20239;-52
2023/10/12 12:05:09;;;;;;;13.23;5.13;;;;;;;24.34;46.77;152112.09;4916751;29;20241;-54
2023/10/12 12:07:42;;;;;;;11.50;5.20;;;;;;;24.34;46.21;152112.09;4916214;29;20234;-52
2023/10/12 12:10:13;;;;;;;13.67;5.10;;;;;;;23.84;47.26;151991.56;4920510;29;20235;-52
2023/10/12 12:12:44;;;;;;;11.50;4.70;;;;;;;24.22;46.95;152083.25;4915894;29;20240;-51
2023/10/12 12:15:14;;;;;;;10.00;4.80;;;;;;;23.86;49.03;151996.53;4918557;29;20227;-54